createdAt,value
2023-01-27T06:10:50.059Z,-0.40
2023-01-27T06:13:17.360Z,-0.40
2023-01-27T06:15:46.234Z,-0.50
2023-01-27T06:18:13.696Z,-0.50
2023-01-27T06:20:41.505Z,-0.50
2023-01-27T06:23:10.174Z,-0.60
2023-01-27T06:25:43.269Z,-0.60
2023-01-27T06:28:12.586Z,-0.60
2023-01-27T07:19:45.857Z,-0.60
2023-01-27T07:58:25.414Z,-0.40
2023-01-27T08:01:15.957Z,-0.30
2023-01-27T09:07:03.271Z,-0.10
2023-01-27T09:25:38.505Z,0.10
2023-01-27T09:27:38.773Z,0.20
2023-01-27T09:54:52.201Z,0.90
2023-01-27T10:01:57.765Z,0.90
2023-01-27T10:16:41.493Z,1.00
2023-01-27T10:34:04.537Z,1.00
2023-01-27T11:01:34.338Z,1.00
2023-01-27T11:04:48.945Z,0.90
2023-01-27T11:20:13.617Z,0.80
2023-01-27T11:25:19.168Z,0.70
2023-01-27T11:31:46.658Z,0.70
2023-01-27T12:40:51.297Z,0.70
2023-01-27T13:34:02.220Z,0.50
2023-01-27T13:47:47.232Z,0.60
2023-01-27T13:50:22.750Z,0.50
2023-01-27T13:52:56.071Z,0.50
2023-01-27T13:55:49.740Z,0.40
2023-01-27T13:58:42.870Z,0.40
2023-01-27T14:01:39.714Z,0.40
2023-01-27T14:04:12.343Z,0.40
2023-01-27T14:07:01.031Z,0.40
2023-01-27T14:09:51.801Z,0.30
2023-01-27T14:12:27.900Z,0.30
2023-01-27T14:15:25.795Z,0.30
2023-01-27T14:18:16.528Z,0.30
2023-01-27T14:21:02.026Z,0.30
2023-01-27T14:23:44.341Z,0.30
2023-01-27T14:26:26.679Z,0.30
2023-01-27T14:29:02.903Z,0.30
2023-01-27T14:31:56.652Z,0.30
2023-01-27T14:34:46.901Z,0.20
2023-01-27T14:37:19.273Z,0.30
2023-01-27T14:40:00.878Z,0.30
2023-01-27T14:42:33.443Z,0.20
2023-01-27T14:45:13.441Z,0.20
2023-01-27T14:47:58.261Z,0.30
2023-01-27T14:50:44.807Z,0.20
2023-01-27T14:53:22.821Z,0.20
2023-01-27T14:55:57.100Z,0.20
2023-01-27T14:58:32.436Z,0.20
2023-01-27T15:01:11.583Z,0.20
2023-01-27T15:03:46.075Z,0.20
2023-01-27T15:06:53.495Z,0.10
2023-01-27T15:09:50.032Z,0.20
2023-01-27T15:12:26.218Z,0.10
2023-01-27T15:15:42.928Z,0.10
2023-01-27T16:16:43.832Z,0.20
2023-01-27T16:33:49.803Z,0.30
2023-01-27T16:36:35.768Z,0.30
2023-01-27T16:39:18.385Z,0.20
2023-01-27T16:41:55.161Z,0.30
2023-01-27T16:44:38.337Z,0.20
2023-01-27T16:47:16.882Z,0.20
2023-01-27T16:49:44.887Z,0.20
2023-01-27T16:52:21.240Z,0.20
2023-01-27T16:54:53.145Z,0.20
2023-01-27T16:57:35.703Z,0.20
2023-01-27T17:00:20.942Z,0.20
2023-01-27T17:02:48.874Z,0.20
2023-01-27T17:05:17.542Z,0.20
2023-01-27T17:08:20.876Z,0.20
2023-01-27T17:11:04.697Z,0.20
2023-01-27T17:13:35.119Z,0.20
2023-01-27T17:16:06.519Z,0.20
2023-01-27T17:18:50.714Z,0.10
2023-01-27T17:21:36.361Z,0.10
2023-01-27T17:24:15.966Z,0.10
2023-01-27T17:26:46.489Z,0.10
2023-01-27T17:29:19.524Z,0.10
2023-01-27T17:31:48.206Z,0.10
2023-01-27T17:34:18.897Z,0.10
2023-01-27T17:37:04.206Z,0.10
2023-01-27T17:39:37.682Z,0.10
2023-01-27T17:42:05.938Z,0.10
2023-01-27T17:44:33.273Z,0.10
2023-01-27T17:47:04.139Z,0.10
2023-01-27T17:49:32.526Z,0.00
2023-01-27T17:52:00.447Z,0.10
2023-01-27T17:54:37.851Z,0.00
2023-01-27T17:57:27.487Z,0.10
2023-01-27T18:00:17.247Z,0.10
2023-01-27T18:02:59.651Z,0.00
2023-01-27T18:05:36.875Z,-0.10
2023-01-27T18:08:09.395Z,0.00
2023-01-27T18:10:44.332Z,0.00
2023-01-27T18:13:27.401Z,0.00
2023-01-27T18:39:02.005Z,-0.10
2023-01-27T19:10:39.389Z,-0.30
2023-01-27T19:11:52.580Z,-0.20
2023-01-27T19:33:00.876Z,-0.40
2023-01-27T19:42:22.445Z,-0.30
2023-01-27T19:50:00.517Z,-0.40
2023-01-27T20:23:51.504Z,-0.70
2023-01-27T20:29:32.264Z,-0.60
2023-01-27T20:32:00.298Z,-0.70
2023-01-27T20:34:33.765Z,-0.70
2023-01-27T20:37:00.485Z,-0.60
2023-01-27T20:39:27.303Z,-0.60
2023-01-27T20:41:54.120Z,-0.60
2023-01-27T20:44:20.817Z,-0.50
2023-01-27T20:46:49.507Z,-0.50
2023-01-27T20:49:16.335Z,-0.50
2023-01-27T20:51:44.640Z,-0.40
2023-01-27T20:54:13.409Z,-0.40
2023-01-27T20:56:41.697Z,-0.40
2023-01-27T20:59:09.729Z,-0.40
2023-01-27T21:01:36.823Z,-0.40
2023-01-27T21:04:03.643Z,-0.40
2023-01-27T21:06:30.803Z,-0.40
2023-01-27T21:09:00.397Z,-0.40
2023-01-27T21:11:27.197Z,-0.40
2023-01-27T21:13:54.202Z,-0.40
2023-01-27T21:16:21.350Z,-0.40
2023-01-27T21:18:48.270Z,-0.40
2023-01-27T21:21:35.307Z,-0.40
2023-01-27T21:24:02.072Z,-0.40
2023-01-27T21:26:28.849Z,-0.40
2023-01-27T21:28:56.969Z,-0.30
2023-01-27T21:31:24.780Z,-0.40
2023-01-27T21:33:51.833Z,-0.40
2023-01-27T21:36:19.573Z,-0.40
2023-01-27T21:38:49.351Z,-0.40
2023-01-27T21:41:39.922Z,-0.40
2023-01-27T21:44:32.163Z,-0.40
2023-01-27T21:46:59.040Z,-0.40
2023-01-27T21:49:25.796Z,-0.50
2023-01-27T21:51:52.748Z,-0.50
2023-01-27T21:54:19.898Z,-0.40
2023-01-27T21:56:46.906Z,-0.40
2023-01-27T21:59:14.007Z,-0.40
2023-01-27T22:01:41.395Z,-0.50
2023-01-27T22:04:08.396Z,-0.50
2023-01-27T22:06:36.835Z,-0.50
2023-01-27T22:09:03.660Z,-0.50
2023-01-27T22:11:30.530Z,-0.50
2023-01-27T22:13:57.512Z,-0.50
2023-01-27T22:16:26.875Z,-0.50
2023-01-27T22:59:54.358Z,-0.50
2023-01-27T23:06:52.483Z,-0.50
2023-01-27T23:10:25.000Z,-0.60
2023-01-27T23:20:37.812Z,-0.50
2023-01-27T23:38:32.463Z,-0.60
2023-01-27T23:55:29.062Z,-0.60
